Time;durP1;ratioP1;P1;durP2;ratioP2;P2;SDS_P1;SDS_P2;PMS_P1;PMS_P2;Temp;Humidity;BMP_temperature;BMP_pressure;BME280_temperature;BME280_humidity;BME280_pressure;Samples;Min_cycle;Max_cycle;Signal;HPM_P1;HPM_P2
2021/12/24 00:00:57;;;;;;;154.45;35.92;;;5.20;99.90;;;;;;4994300;28;20405;-70
2021/12/24 00:03:23;;;;;;;109.55;31.55;;;5.20;99.90;;;;;;4995997;28;20065;-68
2021/12/24 00:05:49;;;;;;;109.97;33.92;;;5.20;99.90;;;;;;4995200;28;20042;-68
2021/12/24 00:08:14;;;;;;;150.68;34.65;;;5.30;99.90;;;;;;4995187;28;20047;-70
2021/12/24 00:10:42;;;;;;;89.47;30.48;;;5.30;99.90;;;;;;4995335;28;20053;-69
2021/12/24 00:13:12;;;;;;;97.68;31.80;;;5.30;99.90;;;;;;4994729;28;20070;-70
2021/12/24 00:15:51;;;;;;;108.22;32.40;;;5.30;99.90;;;;;;4995141;28;20053;-69
2021/12/24 00:18:42;;;;;;;95.45;31.77;;;5.30;99.90;;;;;;4978315;28;20054;-71
2021/12/24 00:35:07;;;;;;;130.07;33.83;;;5.30;99.90;;;;;;4995065;28;20125;-68
2021/12/24 00:37:36;;;;;;;94.57;29.48;;;5.40;99.90;;;;;;5000516;28;20524;-68
2021/12/24 00:42:28;;;;;;;133.40;32.40;;;5.50;99.90;;;;;;5018066;28;20050;-69
2021/12/24 00:44:54;;;;;;;106.82;29.88;;;5.50;99.90;;;;;;5017734;28;20053;-69
2021/12/24 00:47:19;;;;;;;99.63;30.25;;;5.50;99.90;;;;;;5017436;28;20046;-69
2021/12/24 00:49:45;;;;;;;94.20;29.35;;;5.50;99.90;;;;;;5017989;28;20049;-68
2021/12/24 00:52:33;;;;;;;103.43;29.17;;;5.60;99.90;;;;;;5000956;28;20046;-71
2021/12/24 00:55:03;;;;;;;91.35;28.42;;;5.60;99.90;;;;;;5017701;28;20046;-69
2021/12/24 00:57:29;;;;;;;83.47;27.40;;;5.60;99.90;;;;;;5017290;28;20053;-69
2021/12/24 00:59:55;;;;;;;101.85;28.23;;;5.60;99.90;;;;;;5017529;28;20041;-70
2021/12/24 01:02:21;;;;;;;81.63;25.85;;;5.60;99.90;;;;;;5017569;28;20056;-69
2021/12/24 01:04:47;;;;;;;73.35;25.00;;;5.70;99.90;;;;;;5000413;28;20128;-70
2021/12/24 01:07:12;;;;;;;107.00;28.20;;;5.70;99.90;;;;;;5000244;28;20053;-68
2021/12/24 01:09:38;;;;;;;94.22;25.38;;;5.70;99.90;;;;;;5017404;28;20042;-71
2021/12/24 01:12:04;;;;;;;91.35;25.45;;;5.70;99.90;;;;;;5016988;28;20038;-70
2021/12/24 01:14:30;;;;;;;84.25;24.80;;;5.80;99.90;;;;;;5017128;28;20112;-70
2021/12/24 01:19:37;;;;;;;58.17;21.30;;;5.80;99.90;;;;;;5017449;28;20528;-70
2021/12/24 01:25:03;;;;;;;63.35;19.92;;;5.90;99.90;;;;;;4999712;28;20065;-70
2021/12/24 01:37:53;;;;;;;59.85;20.80;;;6.00;99.90;;;;;;5016636;28;20133;-70
2021/12/24 01:38:18;;;;;;;64.75;20.50;;;6.00;99.90;;;;;;5015976;28;20134;-68
2021/12/24 01:41:04;;;;;;;61.85;19.25;;;6.00;99.90;;;;;;5017228;28;20108;-68
2021/12/24 01:43:29;;;;;;;50.28;18.40;;;6.10;99.90;;;;;;4999456;28;20073;-69
2021/12/24 01:45:57;;;;;;;89.55;21.63;;;6.10;99.90;;;;;;5016668;28;20045;-69
2021/12/24 01:48:23;;;;;;;59.65;19.17;;;6.20;99.90;;;;;;4999250;28;20129;-70
2021/12/24 01:50:51;;;;;;;62.13;18.98;;;6.20;99.90;;;;;;5016911;28;20107;-70
2021/12/24 01:53:19;;;;;;;51.20;17.13;;;6.20;99.90;;;;;;4999493;28;20050;-69
2021/12/24 01:55:47;;;;;;;68.05;18.30;;;6.40;99.90;;;;;;5016343;28;20042;-68
2021/12/24 01:58:13;;;;;;;38.40;15.63;;;6.20;99.90;;;;;;5015567;28;20046;-68
2021/12/24 02:00:45;;;;;;;56.83;16.90;;;6.20;99.90;;;;;;5016220;28;20052;-68
2021/12/24 02:03:12;;;;;;;52.97;17.48;;;6.20;99.90;;;;;;4999621;28;20089;-69
2021/12/24 02:05:38;;;;;;;45.13;15.82;;;6.20;99.90;;;;;;5016191;28;20061;-70
2021/12/24 02:08:05;;;;;;;43.55;15.65;;;6.20;99.90;;;;;;4998885;28;20113;-70
2021/12/24 02:10:31;;;;;;;61.47;16.42;;;6.30;99.90;;;;;;4999067;28;20422;-69
2021/12/24 02:12:57;;;;;;;44.20;15.30;;;6.30;99.90;;;;;;5016078;28;20193;-68
2021/12/24 02:15:48;;;;;;;46.38;15.23;;;6.40;99.90;;;;;;4999407;28;20465;-69
2021/12/24 02:29:10;;;;;;;42.25;14.57;;;6.50;99.90;;;;;;5015974;28;20115;-70
2021/12/24 02:31:36;;;;;;;45.63;15.43;;;6.50;99.90;;;;;;4998484;28;20402;-70
2021/12/24 02:34:02;;;;;;;44.55;15.43;;;6.50;99.90;;;;;;4998994;28;20377;-70
2021/12/24 02:36:28;;;;;;;40.47;15.40;;;6.50;99.90;;;;;;4998256;28;20049;-70
2021/12/24 02:38:54;;;;;;;47.95;15.80;;;6.50;99.90;;;;;;5015811;28;20465;-70
2021/12/24 02:41:20;;;;;;;43.53;15.70;;;6.50;99.90;;;;;;5015765;28;20049;-68
2021/12/24 02:43:47;;;;;;;50.85;16.30;;;6.50;99.90;;;;;;4998376;28;20123;-70
2021/12/24 02:46:24;;;;;;;41.20;14.65;;;6.60;99.90;;;;;;5015973;28;20128;-70
2021/12/24 02:54:03;;;;;;;33.78;12.68;;;6.70;99.90;;;;;;4997890;28;20115;-69
2021/12/24 02:56:33;;;;;;;43.72;13.90;;;6.70;99.90;;;;;;4998392;28;20053;-68
2021/12/24 02:59:00;;;;;;;31.73;12.68;;;6.60;99.90;;;;;;4998230;28;20047;-69
2021/12/24 03:01:33;;;;;;;25.98;11.48;;;6.70;99.90;;;;;;5015164;28;20072;-68
2021/12/24 03:03:59;;;;;;;36.17;13.47;;;6.90;99.90;;;;;;4997950;28;20058;-69
2021/12/24 03:06:29;;;;;;;38.08;13.52;;;6.70;99.90;;;;;;5015446;28;20042;-70
2021/12/24 03:08:55;;;;;;;29.23;12.93;;;6.70;99.90;;;;;;5015271;28;20042;-68
2021/12/24 03:11:21;;;;;;;33.97;12.95;;;6.70;99.90;;;;;;5015202;28;20163;-68
2021/12/24 03:13:48;;;;;;;35.42;12.85;;;6.70;99.90;;;;;;5015297;28;20054;-69
2021/12/24 03:16:14;;;;;;;33.15;12.77;;;6.70;99.90;;;;;;4982202;28;20085;-70
2021/12/24 03:18:41;;;;;;;34.85;13.13;;;6.70;99.90;;;;;;5015278;28;20475;-68
2021/12/24 03:21:17;;;;;;;31.70;12.55;;;6.80;99.90;;;;;;5015446;28;20327;-69
2021/12/24 03:26:46;;;;;;;37.13;12.95;;;6.80;99.90;;;;;;4938469;29;20117;-70
2021/12/24 03:29:13;;;;;;;31.98;10.95;;;6.80;99.90;;;;;;4986103;28;20152;-69
2021/12/24 03:31:39;;;;;;;36.35;12.93;;;6.80;99.90;;;;;;4997697;28;20057;-70
2021/12/24 03:34:08;;;;;;;49.00;13.27;;;6.90;99.90;;;;;;5014705;28;20042;-70
2021/12/24 03:36:34;;;;;;;48.10;14.27;;;6.90;99.90;;;;;;4997480;28;20053;-68
2021/12/24 03:39:00;;;;;;;50.00;14.93;;;6.90;99.90;;;;;;4997467;28;20056;-68
2021/12/24 03:41:26;;;;;;;53.08;15.10;;;7.00;99.90;;;;;;5015350;28;20094;-71
2021/12/24 03:43:52;;;;;;;66.10;16.52;;;7.00;99.90;;;;;;4998148;28;20438;-70
2021/12/24 03:46:22;;;;;;;86.35;19.00;;;7.00;99.90;;;;;;5014968;28;20061;-68
2021/12/24 03:48:56;;;;;;;87.45;19.33;;;7.10;99.90;;;;;;5014818;28;20042;-70
2021/12/24 03:56:39;;;;;;;93.07;21.70;;;7.30;99.90;;;;;;5014559;28;20109;-69
2021/12/24 03:59:06;;;;;;;85.45;22.42;;;7.40;99.90;;;;;;5014402;28;20045;-70
2021/12/24 04:01:32;;;;;;;103.93;24.60;;;7.40;99.90;;;;;;5019075;28;20129;-70
2021/12/24 04:03:57;;;;;;;100.95;24.95;;;7.40;99.90;;;;;;5018764;28;20137;-69
2021/12/24 04:06:23;;;;;;;140.88;27.63;;;7.50;99.90;;;;;;4985552;28;20112;-68
2021/12/24 04:08:49;;;;;;;111.25;25.90;;;7.60;99.90;;;;;;5000994;28;20049;-70
2021/12/24 04:11:15;;;;;;;168.57;28.45;;;7.60;99.90;;;;;;5018372;28;20069;-70
2021/12/24 04:13:41;;;;;;;154.40;28.08;;;7.60;99.90;;;;;;4996158;28;20164;-69
2021/12/24 04:16:07;;;;;;;156.88;28.00;;;7.80;99.90;;;;;;5017179;28;20545;-68
2021/12/24 04:26:30;;;;;;;111.93;23.90;;;7.70;99.90;;;;;;5018001;28;20061;-69
2021/12/24 04:28:57;;;;;;;97.35;24.10;;;7.80;99.90;;;;;;5017611;28;20062;-70
2021/12/24 04:31:30;;;;;;;104.78;24.30;;;7.80;99.90;;;;;;5018275;28;20050;-69
2021/12/24 04:33:59;;;;;;;126.60;26.00;;;7.80;99.90;;;;;;5017037;28;20474;-69
2021/12/24 04:39:35;;;;;;;108.07;25.58;;;7.90;99.90;;;;;;5016969;28;20053;-69
2021/12/24 05:03:42;;;;;;;147.10;32.42;;;8.00;99.90;;;;;;5017591;28;20081;-70
2021/12/24 05:06:31;;;;;;;103.55;28.25;;;8.00;99.90;;;;;;4999429;28;20062;-69
2021/12/24 05:09:04;;;;;;;292.27;37.08;;;8.10;99.90;;;;;;5017872;28;20046;-68
2021/12/24 05:11:29;;;;;;;94.68;28.42;;;8.20;99.90;;;;;;5016555;28;20088;-70
2021/12/24 05:13:55;;;;;;;111.45;28.23;;;8.10;99.90;;;;;;5017141;28;20089;-70
2021/12/24 05:16:25;;;;;;;82.05;26.50;;;8.10;99.90;;;;;;5016930;28;20054;-70
2021/12/24 05:21:37;;;;;;;89.93;25.05;;;8.20;99.90;;;;;;5000327;28;20050;-70
2021/12/24 05:24:08;;;;;;;77.30;25.30;;;8.10;99.90;;;;;;5017309;28;20158;-70
2021/12/24 05:26:35;;;;;;;75.10;25.92;;;8.10;99.90;;;;;;4999575;28;20466;-70
2021/12/24 05:29:02;;;;;;;90.80;27.98;;;8.10;99.90;;;;;;5017478;28;20046;-70
2021/12/24 05:31:29;;;;;;;84.82;27.35;;;8.10;99.90;;;;;;5017029;28;20480;-69
2021/12/24 05:33:55;;;;;;;86.25;28.25;;;8.20;99.90;;;;;;5017187;28;20409;-69
2021/12/24 05:36:21;;;;;;;96.60;30.52;;;8.20;99.90;;;;;;5016660;28;20045;-70
2021/12/24 05:38:47;;;;;;;118.32;32.58;;;8.20;99.90;;;;;;5017186;28;20046;-69
2021/12/24 05:41:13;;;;;;;83.97;29.38;;;8.20;99.90;;;;;;5016989;28;20046;-68
2021/12/24 05:43:40;;;;;;;92.50;29.80;;;8.20;99.90;;;;;;5000226;28;20127;-70
2021/12/24 05:46:05;;;;;;;84.70;29.52;;;8.20;99.90;;;;;;4999817;28;20060;-69
2021/12/24 05:48:31;;;;;;;87.03;30.70;;;8.20;99.90;;;;;;5016632;28;20046;-69
2021/12/24 05:50:57;;;;;;;108.30;32.63;;;8.20;99.90;;;;;;4999845;28;20446;-69
2021/12/24 05:53:24;;;;;;;112.85;31.05;;;8.20;99.90;;;;;;5016716;28;20054;-68
2021/12/24 05:55:50;;;;;;;87.88;30.73;;;8.10;99.90;;;;;;5016189;28;20099;-68
2021/12/24 05:58:16;;;;;;;107.13;30.95;;;8.10;99.90;;;;;;4999655;28;20058;-68
2021/12/24 06:00:43;;;;;;;96.00;31.27;;;8.10;99.90;;;;;;5015968;28;20042;-70
2021/12/24 06:03:09;;;;;;;90.88;30.23;;;8.10;99.90;;;;;;5016624;28;20046;-70
2021/12/24 06:05:36;;;;;;;91.20;29.17;;;8.10;99.90;;;;;;4998570;28;20045;-69
2021/12/24 06:08:03;;;;;;;67.35;26.50;;;8.10;99.90;;;;;;5016396;28;20076;-68
2021/12/24 06:10:29;;;;;;;85.82;28.63;;;8.20;99.90;;;;;;4998633;28;20465;-69
2021/12/24 06:12:54;;;;;;;81.78;27.10;;;8.10;99.90;;;;;;4990837;28;20057;-69
2021/12/24 06:15:24;;;;;;;66.03;25.42;;;8.20;99.90;;;;;;4979460;28;20042;-69
2021/12/24 06:17:52;;;;;;;70.47;25.73;;;8.10;99.90;;;;;;4996303;28;20042;-70
2021/12/24 06:20:18;;;;;;;75.47;24.90;;;8.20;99.90;;;;;;4979342;28;20092;-70
2021/12/24 06:22:44;;;;;;;73.32;24.40;;;8.20;99.90;;;;;;4979283;28;20082;-68
2021/12/24 06:25:10;;;;;;;60.78;23.52;;;8.10;99.90;;;;;;4996214;28;20101;-70
2021/12/24 06:27:36;;;;;;;62.30;22.83;;;8.10;99.90;;;;;;4979944;28;20053;-68
2021/12/24 06:30:04;;;;;;;52.97;21.48;;;8.20;99.90;;;;;;4996480;28;20050;-68
2021/12/24 06:32:30;;;;;;;70.05;22.50;;;8.20;99.90;;;;;;4996235;28;20459;-68
2021/12/24 06:34:55;;;;;;;66.85;21.88;;;8.10;99.90;;;;;;4979000;28;20073;-71
2021/12/24 06:37:21;;;;;;;51.28;20.95;;;8.20;99.90;;;;;;4996808;28;20049;-69
2021/12/24 06:39:47;;;;;;;58.80;20.50;;;8.20;99.90;;;;;;4996061;28;20061;-70
2021/12/24 06:42:12;;;;;;;57.03;21.45;;;8.20;99.90;;;;;;4979080;28;20078;-70
2021/12/24 06:44:38;;;;;;;61.67;20.55;;;8.20;99.90;;;;;;4996113;28;20038;-70
2021/12/24 06:47:04;;;;;;;63.97;20.85;;;8.20;99.90;;;;;;4995294;28;20038;-70
2021/12/24 06:49:30;;;;;;;66.45;19.38;;;8.20;99.90;;;;;;4995843;28;20201;-68
2021/12/24 06:51:56;;;;;;;58.90;19.40;;;8.20;99.90;;;;;;4996140;28;20057;-70
2021/12/24 06:54:21;;;;;;;68.35;20.77;;;8.20;99.90;;;;;;4962901;28;20078;-71
2021/12/24 06:56:48;;;;;;;50.45;18.48;;;8.40;99.90;;;;;;4978707;28;20057;-68
2021/12/24 06:59:14;;;;;;;57.38;19.83;;;8.20;99.90;;;;;;4993964;28;20050;-70
2021/12/24 07:01:40;;;;;;;47.15;17.65;;;8.10;99.90;;;;;;4978651;28;20050;-69
2021/12/24 07:04:05;;;;;;;49.35;18.48;;;8.10;99.90;;;;;;4995860;28;20125;-67
2021/12/24 07:06:31;;;;;;;50.25;18.58;;;8.20;99.90;;;;;;4978537;28;20366;-71
2021/12/24 07:08:57;;;;;;;54.40;17.85;;;8.10;99.90;;;;;;4979365;28;20072;-69
2021/12/24 07:11:24;;;;;;;53.33;17.95;;;8.10;99.90;;;;;;4978602;28;20477;-70
2021/12/24 07:13:50;;;;;;;56.22;18.33;;;8.10;99.90;;;;;;5006137;28;20068;-70
2021/12/24 07:16:15;;;;;;;45.35;17.58;;;8.10;99.90;;;;;;5014816;28;20425;-69
2021/12/24 07:18:41;;;;;;;45.50;17.30;;;8.10;99.90;;;;;;5013898;28;20064;-70
2021/12/24 07:21:07;;;;;;;51.58;18.17;;;8.10;99.90;;;;;;5014223;28;20117;-70
2021/12/24 07:23:33;;;;;;;48.78;15.85;;;8.10;99.90;;;;;;5014067;28;20512;-68
2021/12/24 07:25:59;;;;;;;36.63;15.55;;;8.10;99.90;;;;;;5015238;28;20092;-69
2021/12/24 07:28:24;;;;;;;47.50;16.48;;;8.10;99.90;;;;;;5014269;28;20060;-69
2021/12/24 07:30:50;;;;;;;40.85;15.07;;;8.10;99.90;;;;;;5015115;28;20050;-68
2021/12/24 07:33:16;;;;;;;38.30;14.50;;;8.10;99.90;;;;;;5014056;28;20446;-69
2021/12/24 07:35:43;;;;;;;43.97;14.82;;;8.40;99.90;;;;;;5017688;28;20041;-68
2021/12/24 07:38:09;;;;;;;37.38;14.15;;;8.00;99.90;;;;;;5018923;28;20351;-70
2021/12/24 07:40:36;;;;;;;46.95;15.40;;;8.00;99.90;;;;;;5018806;28;20054;-68
2021/12/24 07:43:02;;;;;;;43.20;13.68;;;8.00;99.90;;;;;;5019293;28;20058;-68
2021/12/24 07:45:28;;;;;;;36.10;13.52;;;8.00;99.90;;;;;;5018485;28;20181;-69
2021/12/24 07:48:11;;;;;;;38.22;13.73;;;8.00;99.90;;;;;;5001761;28;20505;-68
2021/12/24 07:53:08;;;;;;;31.25;13.93;;;8.00;99.90;;;;;;5018851;28;20128;-67
2021/12/24 07:55:36;;;;;;;36.58;13.07;;;8.00;99.90;;;;;;5014893;28;20061;-70
2021/12/24 07:58:02;;;;;;;34.42;13.55;;;7.90;99.90;;;;;;5016119;28;20050;-71
2021/12/24 08:00:28;;;;;;;43.17;13.75;;;8.00;99.90;;;;;;5001470;28;20083;-70
2021/12/24 08:02:54;;;;;;;41.50;15.02;;;8.00;99.90;;;;;;5016705;28;20355;-71
2021/12/24 08:05:23;;;;;;;46.97;14.45;;;8.00;99.90;;;;;;5018644;28;20042;-69
2021/12/24 08:07:49;;;;;;;34.47;13.15;;;8.00;99.90;;;;;;5018807;28;20049;-69
2021/12/24 08:10:15;;;;;;;44.15;14.27;;;8.00;99.90;;;;;;5018411;28;20060;-68
2021/12/24 08:12:41;;;;;;;37.03;13.98;;;8.00;99.90;;;;;;5018010;28;20140;-70
2021/12/24 08:15:07;;;;;;;38.47;12.40;;;8.00;99.90;;;;;;5017948;28;20113;-71
2021/12/24 08:17:34;;;;;;;37.85;12.32;;;8.00;99.90;;;;;;5018334;28;20454;-71
2021/12/24 08:19:59;;;;;;;31.67;11.38;;;8.00;99.90;;;;;;5017858;28;20049;-68
2021/12/24 08:22:25;;;;;;;32.45;10.63;;;8.10;99.90;;;;;;5001046;28;20071;-72
2021/12/24 08:24:51;;;;;;;27.70;10.68;;;8.00;99.90;;;;;;5018081;28;20042;-68
2021/12/24 08:27:16;;;;;;;25.15;10.00;;;8.00;99.90;;;;;;5000795;28;20359;-68
2021/12/24 08:29:42;;;;;;;27.50;10.07;;;8.00;99.90;;;;;;5018051;28;20179;-70
2021/12/24 08:32:09;;;;;;;24.05;9.63;;;8.00;99.90;;;;;;4987228;28;20054;-68
2021/12/24 08:34:35;;;;;;;27.45;10.30;;;8.00;99.90;;;;;;4979835;28;20154;-70
2021/12/24 08:37:01;;;;;;;22.77;9.75;;;7.90;99.90;;;;;;4997719;28;20066;-69
2021/12/24 08:39:27;;;;;;;23.50;9.82;;;8.00;99.90;;;;;;4998323;28;20044;-69
2021/12/24 08:41:54;;;;;;;78.07;12.80;;;7.90;99.90;;;;;;4981332;28;20056;-70
2021/12/24 08:44:22;;;;;;;28.20;10.52;;;7.90;99.90;;;;;;4981123;28;20400;-68
2021/12/24 08:46:48;;;;;;;27.55;10.77;;;7.90;99.90;;;;;;4998029;28;20059;-69
2021/12/24 08:49:14;;;;;;;28.55;10.30;;;8.00;99.90;;;;;;4998163;28;20112;-69
2021/12/24 08:51:40;;;;;;;32.13;11.02;;;8.00;99.90;;;;;;4964815;28;20454;-68
2021/12/24 08:54:05;;;;;;;38.53;10.75;;;8.00;99.90;;;;;;4980800;28;20484;-68
2021/12/24 08:56:32;;;;;;;27.08;11.00;;;8.00;99.90;;;;;;4997972;28;20046;-67
2021/12/24 08:58:57;;;;;;;23.98;10.13;;;8.00;99.90;;;;;;4981029;28;20054;-70
2021/12/24 09:01:23;;;;;;;28.25;9.88;;;8.00;99.90;;;;;;4993496;28;20120;-68
2021/12/24 09:03:48;;;;;;;31.35;10.35;;;8.00;99.90;;;;;;4985853;28;20051;-68
2021/12/24 09:06:14;;;;;;;27.98;10.30;;;8.00;99.90;;;;;;4961341;28;20121;-67
2021/12/24 09:08:42;;;;;;;27.30;8.68;;;8.00;99.90;;;;;;4970245;28;20050;-68
2021/12/24 09:11:08;;;;;;;28.30;9.80;;;8.00;99.90;;;;;;4989993;28;20072;-68
2021/12/24 09:13:33;;;;;;;28.88;9.18;;;8.00;99.90;;;;;;5011057;28;20049;-68
2021/12/24 09:15:59;;;;;;;22.50;8.57;;;8.00;99.90;;;;;;5003284;28;20041;-69
2021/12/24 09:18:24;;;;;;;28.50;8.63;;;8.00;99.90;;;;;;4999790;28;20053;-70
2021/12/24 09:20:50;;;;;;;24.88;8.93;;;8.10;99.90;;;;;;5000265;28;20049;-69
2021/12/24 09:23:18;;;;;;;31.67;9.45;;;8.00;99.90;;;;;;4984017;28;20050;-70
2021/12/24 09:25:43;;;;;;;26.55;8.45;;;8.10;99.90;;;;;;5000063;28;20046;-69
2021/12/24 09:28:09;;;;;;;16.38;8.10;;;8.10;99.90;;;;;;5017471;28;20477;-69
2021/12/24 09:30:36;;;;;;;24.17;8.95;;;8.10;99.90;;;;;;5016988;28;20046;-70
2021/12/24 09:33:03;;;;;;;23.52;9.05;;;8.10;99.90;;;;;;5016043;28;20157;-71
2021/12/24 09:35:29;;;;;;;23.92;9.00;;;8.10;99.90;;;;;;4998217;28;20045;-69
2021/12/24 09:37:56;;;;;;;21.83;8.93;;;8.10;99.90;;;;;;4999686;28;20050;-70
2021/12/24 09:40:22;;;;;;;21.98;8.85;;;8.10;99.90;;;;;;5000012;28;20068;-70
2021/12/24 09:42:48;;;;;;;24.83;10.00;;;8.10;99.90;;;;;;5000573;28;20038;-71
2021/12/24 09:45:15;;;;;;;19.75;10.00;;;8.10;99.90;;;;;;5016680;28;20050;-72
2021/12/24 09:47:41;;;;;;;22.27;9.25;;;8.10;99.90;;;;;;5016612;28;20058;-71
2021/12/24 09:50:09;;;;;;;24.25;9.38;;;8.10;99.90;;;;;;5016572;28;20458;-70
2021/12/24 09:52:38;;;;;;;27.23;9.10;;;8.10;99.90;;;;;;5016474;28;20050;-70
2021/12/24 09:55:26;;;;;;;26.35;8.27;;;8.10;99.90;;;;;;4998646;28;20073;-70
2021/12/24 09:57:53;;;;;;;22.13;7.75;;;8.10;99.90;;;;;;5014448;28;20354;-70
2021/12/24 10:00:21;;;;;;;23.13;7.85;;;8.20;99.90;;;;;;4999179;28;20481;-71
2021/12/24 10:02:51;;;;;;;21.40;7.25;;;8.10;99.90;;;;;;4998894;28;20081;-71
2021/12/24 10:05:39;;;;;;;17.88;7.60;;;8.10;99.90;;;;;;5014757;28;20049;-71
2021/12/24 10:08:19;;;;;;;18.23;7.88;;;8.10;99.90;;;;;;4996481;28;20050;-69
2021/12/24 10:10:51;;;;;;;23.60;14.00;;;8.10;99.90;;;;;;4996444;28;20042;-69
2021/12/24 10:13:31;;;;;;;12.70;5.53;;;8.10;99.90;;;;;;4986802;28;20481;-68
2021/12/24 10:16:06;;;;;;;6.30;3.90;;;8.00;99.90;;;;;;4995397;28;20054;-67
2021/12/24 10:18:42;;;;;;;5.43;3.50;;;7.80;99.90;;;;;;5011864;28;20054;-69
2021/12/24 10:21:19;;;;;;;9.10;4.25;;;7.50;99.90;;;;;;4994978;28;20054;-67
2021/12/24 10:24:00;;;;;;;6.32;4.05;;;7.40;99.90;;;;;;4996104;28;20090;-68
2021/12/24 10:26:33;;;;;;;5.88;4.10;;;7.20;99.90;;;;;;4995318;28;20050;-69
2021/12/24 10:29:07;;;;;;;8.80;4.70;;;7.10;99.90;;;;;;5003497;28;20454;-65
2021/12/24 10:31:51;;;;;;;7.25;5.07;;;7.00;99.90;;;;;;5013835;28;20133;-70
2021/12/24 10:34:28;;;;;;;8.55;4.97;;;6.90;99.90;;;;;;5007028;28;20157;-68
2021/12/24 10:37:18;;;;;;;7.50;5.22;;;6.80;99.90;;;;;;5014048;28;20042;-70
2021/12/24 10:39:55;;;;;;;8.68;4.95;;;6.70;99.90;;;;;;5007386;28;20125;-69
2021/12/24 10:42:23;;;;;;;7.25;5.25;;;6.70;99.90;;;;;;5012301;28;20050;-69
2021/12/24 10:44:50;;;;;;;11.65;6.55;;;6.60;99.90;;;;;;5015409;28;20100;-69
2021/12/24 10:47:36;;;;;;;11.60;8.73;;;6.60;99.90;;;;;;5011870;28;20046;-69
2021/12/24 10:53:19;;;;;;;18.60;9.32;;;6.40;99.90;;;;;;5014170;28;20057;-70
2021/12/24 10:55:51;;;;;;;7.90;6.07;;;6.40;99.90;;;;;;5013966;28;20139;-70
2021/12/24 10:58:20;;;;;;;11.65;5.95;;;6.40;99.90;;;;;;5013279;28;20060;-70
2021/12/24 11:00:55;;;;;;;8.07;5.30;;;6.40;99.90;;;;;;5014603;28;20489;-69
2021/12/24 11:03:23;;;;;;;6.78;4.65;;;6.30;99.90;;;;;;5013380;28;20045;-70
2021/12/24 11:05:55;;;;;;;6.85;4.78;;;6.30;99.90;;;;;;5013496;28;20050;-68
2021/12/24 11:08:24;;;;;;;9.45;5.45;;;6.20;99.90;;;;;;5013360;28;20050;-68
2021/12/24 11:10:56;;;;;;;8.23;5.03;;;6.20;99.90;;;;;;5013423;28;20045;-69
2021/12/24 11:13:35;;;;;;;9.05;5.45;;;6.20;99.90;;;;;;5013175;28;20576;-68
2021/12/24 11:16:02;;;;;;;11.70;5.85;;;6.20;99.90;;;;;;5014326;28;20072;-69
2021/12/24 11:18:34;;;;;;;8.68;5.55;;;6.20;99.90;;;;;;5014791;28;20045;-69
2021/12/24 11:21:05;;;;;;;10.25;5.72;;;6.20;99.90;;;;;;5014778;28;20129;-70
2021/12/24 11:23:33;;;;;;;8.55;5.43;;;6.30;99.90;;;;;;5013734;28;20140;-70
2021/12/24 11:26:05;;;;;;;7.47;4.72;;;6.20;99.90;;;;;;5006996;28;20088;-71
2021/12/24 11:28:32;;;;;;;12.73;8.55;;;6.20;99.90;;;;;;5014457;28;20050;-68
2021/12/24 11:31:07;;;;;;;14.65;10.80;;;6.20;99.90;;;;;;5011415;28;20054;-71
2021/12/24 11:33:35;;;;;;;7.35;4.95;;;6.20;99.90;;;;;;5018504;28;20049;-70
2021/12/24 11:36:06;;;;;;;8.88;5.65;;;6.10;99.90;;;;;;5013955;28;20125;-72
2021/12/24 11:38:38;;;;;;;10.52;6.78;;;6.10;99.90;;;;;;5004177;28;20089;-71
2021/12/24 11:41:06;;;;;;;8.05;5.43;;;6.10;99.90;;;;;;5014178;28;20104;-69
2021/12/24 11:43:36;;;;;;;10.85;4.97;;;6.20;99.90;;;;;;5014147;28;20077;-69
2021/12/24 11:46:09;;;;;;;7.80;5.30;;;6.20;99.90;;;;;;5023177;28;20120;-69
2021/12/24 11:48:36;;;;;;;9.07;5.53;;;6.20;99.90;;;;;;5013938;28;20097;-70
2021/12/24 11:51:13;;;;;;;8.07;4.95;;;6.20;99.90;;;;;;5013107;28;20077;-70
2021/12/24 11:53:39;;;;;;;6.78;4.70;;;6.20;99.90;;;;;;5014037;28;20073;-74
2021/12/24 11:56:09;;;;;;;6.57;4.68;;;6.20;99.90;;;;;;5013963;28;20060;-72
2021/12/24 11:58:47;;;;;;;6.13;4.70;;;6.20;99.90;;;;;;5023057;28;20053;-72
2021/12/24 12:01:16;;;;;;;11.20;6.50;;;6.10;99.90;;;;;;5013009;28;20046;-72
2021/12/24 12:03:52;;;;;;;14.27;6.97;;;6.10;99.90;;;;;;5013935;28;20041;-71
2021/12/24 12:06:17;;;;;;;8.77;5.43;;;6.10;99.90;;;;;;5005461;28;20042;-70
2021/12/24 12:08:48;;;;;;;9.57;6.30;;;6.10;99.90;;;;;;5013604;28;20406;-69
2021/12/24 12:11:13;;;;;;;8.60;6.55;;;6.10;99.90;;;;;;5014753;28;20049;-72
2021/12/24 12:13:44;;;;;;;10.05;5.95;;;6.10;99.90;;;;;;5012745;28;20430;-68
2021/12/24 12:16:13;;;;;;;14.02;5.50;;;6.10;99.90;;;;;;5012891;28;20354;-69
2021/12/24 12:18:46;;;;;;;9.40;5.65;;;6.10;99.90;;;;;;5026169;28;20057;-69
2021/12/24 12:21:13;;;;;;;7.20;5.20;;;6.20;99.90;;;;;;5015555;28;20056;-70
2021/12/24 12:26:43;;;;;;;8.32;5.47;;;6.10;99.90;;;;;;5016262;28;20061;-69
2021/12/24 12:29:15;;;;;;;;;;;6.20;99.90;;;;;;5017772;28;20061;-69
2021/12/24 12:31:41;;;;;;;10.65;6.22;;;6.10;99.90;;;;;;5016170;28;19968;-68
2021/12/24 12:34:38;;;;;;;9.57;6.28;;;6.10;99.90;;;;;;5015899;28;20485;-70
2021/12/24 12:37:18;;;;;;;9.57;6.75;;;6.10;99.90;;;;;;5016556;28;20054;-70
2021/12/24 12:39:51;;;;;;;8.32;5.93;;;6.20;99.90;;;;;;5017101;28;20042;-70
2021/12/24 12:42:18;;;;;;;9.90;6.80;;;6.20;99.90;;;;;;5015241;28;20077;-71
2021/12/24 12:44:52;;;;;;;9.02;6.55;;;6.20;99.90;;;;;;5017015;28;20046;-70
2021/12/24 12:47:24;;;;;;;9.38;6.00;;;6.20;99.90;;;;;;5016782;28;20089;-72
2021/12/24 12:50:10;;;;;;;8.80;6.32;;;6.20;99.90;;;;;;5016072;28;20041;-72
2021/12/24 12:52:36;;;;;;;9.05;6.55;;;6.40;99.90;;;;;;5016516;28;20124;-72
2021/12/24 12:55:02;;;;;;;8.55;6.28;;;6.30;99.90;;;;;;5016825;28;20054;-68
2021/12/24 12:57:37;;;;;;;10.00;6.72;;;6.30;99.90;;;;;;5015514;28;20060;-70
2021/12/24 13:00:09;;;;;;;11.45;7.22;;;6.30;99.90;;;;;;5016665;28;20046;-68
2021/12/24 13:02:56;;;;;;;9.30;6.97;;;6.30;99.90;;;;;;5015494;28;20116;-69
2021/12/24 13:05:23;;;;;;;8.70;6.05;;;6.30;99.90;;;;;;5016333;28;20045;-68
2021/12/24 13:07:50;;;;;;;11.00;6.15;;;6.40;99.90;;;;;;5015864;28;20053;-69
2021/12/24 13:10:17;;;;;;;11.50;6.68;;;6.40;99.90;;;;;;5015477;28;20046;-70
2021/12/24 13:12:43;;;;;;;9.60;6.20;;;6.40;99.90;;;;;;5016411;28;20474;-71
2021/12/24 13:15:16;;;;;;;10.32;6.00;;;6.50;99.90;;;;;;4999219;28;20054;-69
2021/12/24 13:17:46;;;;;;;8.65;6.00;;;6.50;99.90;;;;;;4998750;28;20528;-69
2021/12/24 13:20:21;;;;;;;9.70;5.53;;;6.50;99.90;;;;;;4999395;28;20457;-71
2021/12/24 13:22:46;;;;;;;7.40;5.30;;;6.50;99.90;;;;;;5025239;28;20041;-69
2021/12/24 13:25:15;;;;;;;8.40;5.70;;;6.50;99.90;;;;;;4999161;28;20370;-67
2021/12/24 13:27:52;;;;;;;9.05;5.85;;;6.60;99.90;;;;;;4998919;28;20187;-67
2021/12/24 13:30:23;;;;;;;8.55;6.18;;;6.60;99.90;;;;;;4998554;28;20129;-68
2021/12/24 13:32:51;;;;;;;12.40;6.55;;;6.70;99.90;;;;;;5014990;28;20377;-69
2021/12/24 13:35:23;;;;;;;10.02;6.85;;;6.70;99.90;;;;;;5015689;28;20042;-70
2021/12/24 13:37:54;;;;;;;7.05;5.25;;;6.80;99.90;;;;;;4998652;28;20125;-69
2021/12/24 13:40:22;;;;;;;9.25;5.25;;;6.80;99.90;;;;;;4997519;28;20045;-72
2021/12/24 13:42:51;;;;;;;8.15;5.88;;;6.80;99.90;;;;;;4998416;28;20050;-70
2021/12/24 13:45:18;;;;;;;12.95;5.90;;;6.90;99.90;;;;;;4982254;28;20050;-68
2021/12/24 13:55:42;;;;;;;8.10;5.90;;;6.90;99.90;;;;;;4998292;28;20054;-68
2021/12/24 13:58:19;;;;;;;9.88;5.68;;;7.00;99.90;;;;;;4998521;28;20485;-70
2021/12/24 14:00:51;;;;;;;8.90;6.00;;;7.00;99.90;;;;;;4998215;28;20068;-69
2021/12/24 14:03:22;;;;;;;8.18;5.20;;;7.00;99.90;;;;;;4998347;28;20056;-68
2021/12/24 14:05:51;;;;;;;7.30;5.45;;;6.90;99.90;;;;;;4997865;28;20046;-69
2021/12/24 14:08:26;;;;;;;7.57;5.22;;;6.90;99.90;;;;;;5014860;28;20069;-70
2021/12/24 14:11:06;;;;;;;8.48;5.57;;;6.80;99.90;;;;;;4998201;28;20050;-72
2021/12/24 14:13:37;;;;;;;9.93;5.05;;;6.80;99.90;;;;;;5015175;28;20085;-69
2021/12/24 14:16:15;;;;;;;7.63;5.57;;;6.70;99.90;;;;;;4997883;28;20322;-69
2021/12/24 14:19:02;;;;;;;8.38;5.38;;;6.70;99.90;;;;;;4997171;28;20064;-71
2021/12/24 14:24:26;;;;;;;7.60;5.82;;;6.70;99.90;;;;;;4997320;28;20061;-70
2021/12/24 14:26:59;;;;;;;10.07;6.70;;;6.70;99.90;;;;;;5009070;28;20046;-70
2021/12/24 14:29:31;;;;;;;12.20;6.80;;;6.70;99.90;;;;;;4997391;28;20131;-69
2021/12/24 14:32:00;;;;;;;12.45;6.70;;;6.60;99.90;;;;;;5014530;28;20038;-71
2021/12/24 14:34:38;;;;;;;10.65;6.18;;;6.60;99.90;;;;;;4998038;28;20061;-69
2021/12/24 14:37:34;;;;;;;9.98;5.93;;;6.60;99.90;;;;;;4997308;28;20462;-67
2021/12/24 14:40:05;;;;;;;7.32;5.85;;;6.60;99.90;;;;;;4997928;28;20512;-71
2021/12/24 14:42:45;;;;;;;8.10;5.70;;;6.60;99.90;;;;;;5014999;28;20057;-69